createdAt,value
2019-02-17T00:01:35.703Z,5.20
2019-02-17T00:06:40.852Z,5.30
2019-02-17T00:11:46.457Z,5.60
2019-02-17T00:16:51.904Z,5.80
2019-02-17T00:21:57.298Z,5.93
2019-02-17T00:27:02.437Z,5.23
2019-02-17T00:32:07.327Z,5.00
2019-02-17T00:37:13.216Z,5.20
2019-02-17T00:42:18.305Z,5.93
2019-02-17T00:47:23.641Z,5.27
2019-02-17T00:52:28.568Z,4.67
2019-02-17T00:57:33.748Z,4.80
2019-02-17T01:02:38.988Z,5.03
2019-02-17T01:07:44.263Z,4.83
2019-02-17T01:12:49.120Z,4.90
2019-02-17T01:17:54.438Z,4.90
2019-02-17T01:22:59.503Z,4.80
2019-02-17T01:28:04.422Z,4.97
2019-02-17T01:33:09.241Z,4.70
2019-02-17T01:38:14.909Z,4.93
2019-02-17T01:43:20.085Z,4.47
2019-02-17T01:48:25.711Z,4.83
2019-02-17T01:53:31.084Z,4.17
2019-02-17T01:58:35.970Z,4.67
2019-02-17T02:03:41.189Z,4.90
2019-02-17T02:08:46.336Z,4.97
2019-02-17T02:13:51.331Z,4.70
2019-02-17T02:18:56.268Z,4.43
2019-02-17T02:24:01.676Z,4.60
2019-02-17T02:29:06.571Z,4.73
2019-02-17T02:34:11.545Z,4.23
2019-02-17T02:39:16.694Z,4.83
2019-02-17T02:44:21.571Z,3.90
2019-02-17T02:49:26.747Z,4.63
2019-02-17T02:54:31.895Z,3.93
2019-02-17T02:59:37.292Z,4.40
2019-02-17T03:04:42.897Z,4.47
2019-02-17T03:09:48.192Z,4.30
2019-02-17T03:14:53.390Z,3.67
2019-02-17T03:19:58.568Z,3.63
2019-02-17T03:25:04.077Z,3.93
2019-02-17T03:30:09.083Z,4.27
2019-02-17T03:35:13.993Z,3.83
2019-02-17T03:40:19.058Z,3.87
2019-02-17T03:45:24.166Z,3.77
2019-02-17T03:50:29.657Z,3.97
2019-02-17T03:55:34.532Z,3.27
2019-02-17T04:00:39.554Z,3.57
2019-02-17T04:05:44.465Z,3.80
2019-02-17T04:10:49.348Z,4.23
2019-02-17T04:15:54.481Z,3.73
2019-02-17T04:20:59.616Z,4.03
2019-02-17T04:26:04.489Z,3.30
2019-02-17T04:31:09.488Z,3.60
2019-02-17T04:36:14.570Z,4.10
2019-02-17T04:41:19.453Z,3.27
2019-02-17T04:46:24.609Z,3.63
2019-02-17T04:51:30.325Z,3.73
2019-02-17T04:56:35.412Z,3.70
2019-02-17T05:01:40.598Z,4.03
2019-02-17T05:06:45.479Z,4.07
2019-02-17T05:11:50.607Z,4.50
2019-02-17T05:16:55.440Z,4.03
2019-02-17T05:22:00.516Z,3.23
2019-02-17T05:27:05.331Z,3.63
2019-02-17T05:32:10.487Z,3.37
2019-02-17T05:37:15.807Z,3.30
2019-02-17T05:42:20.795Z,3.37
2019-02-17T05:47:25.992Z,3.53
2019-02-17T05:52:31.240Z,3.60
2019-02-17T05:57:35.713Z,3.50
2019-02-17T06:02:40.687Z,3.97
2019-02-17T06:07:46.990Z,4.10
2019-02-17T06:12:51.857Z,3.37
2019-02-17T06:17:57.005Z,3.67
2019-02-17T06:23:02.002Z,3.70
2019-02-17T06:28:06.365Z,3.67
2019-02-17T06:33:11.426Z,3.23
2019-02-17T06:38:16.601Z,3.50
2019-02-17T06:43:21.533Z,3.40
2019-02-17T06:48:26.600Z,3.40
2019-02-17T06:53:31.499Z,3.47
2019-02-17T06:58:36.368Z,3.37
2019-02-17T07:03:42.768Z,3.90
2019-02-17T07:08:48.015Z,3.30
2019-02-17T07:13:53.188Z,3.07
2019-02-17T07:18:58.358Z,3.73
2019-02-17T07:24:03.626Z,3.40
2019-02-17T07:29:08.581Z,3.57
2019-02-17T07:34:13.323Z,3.40
2019-02-17T07:39:18.244Z,3.90
2019-02-17T07:44:23.624Z,3.63
2019-02-17T07:49:28.760Z,3.57
2019-02-17T07:54:34.260Z,3.70
2019-02-17T07:59:39.265Z,3.63
2019-02-17T08:04:44.073Z,3.60
2019-02-17T08:09:49.313Z,3.70
2019-02-17T08:14:54.481Z,3.90
2019-02-17T08:19:59.575Z,4.93
2019-02-17T08:25:04.973Z,4.93
2019-02-17T08:30:11.002Z,4.70
2019-02-17T08:35:16.079Z,4.60
2019-02-17T08:40:21.226Z,5.10
2019-02-17T08:45:26.589Z,6.33
2019-02-17T08:50:31.558Z,5.87
2019-02-17T08:55:36.376Z,5.43
2019-02-17T09:00:41.890Z,6.57
2019-02-17T09:05:46.756Z,5.47
2019-02-17T09:10:52.255Z,6.33
2019-02-17T09:15:57.248Z,6.60
2019-02-17T09:21:02.472Z,7.20
2019-02-17T09:26:07.473Z,6.63
2019-02-17T09:31:12.901Z,7.57
2019-02-17T09:36:17.801Z,6.93
2019-02-17T09:41:23.308Z,7.10
2019-02-17T09:46:28.737Z,6.93
2019-02-17T09:51:33.774Z,7.43
2019-02-17T09:56:39.008Z,7.77
2019-02-17T10:01:44.268Z,7.77
2019-02-17T10:06:50.004Z,8.20
2019-02-17T10:11:55.229Z,7.93
2019-02-17T10:17:01.603Z,8.60
2019-02-17T10:22:06.831Z,10.13
2019-02-17T10:27:12.516Z,10.33
2019-02-17T10:32:18.058Z,8.40
2019-02-17T10:37:23.541Z,10.73
2019-02-17T10:42:29.186Z,8.53
2019-02-17T10:47:34.702Z,9.00
2019-02-17T10:52:40.046Z,8.63
2019-02-17T10:57:45.526Z,9.07
2019-02-17T11:02:50.781Z,7.87
2019-02-17T11:07:55.623Z,7.73
2019-02-17T11:13:00.684Z,9.73
2019-02-17T11:18:05.913Z,8.20
2019-02-17T11:23:10.881Z,8.60
2019-02-17T11:28:16.135Z,6.80
2019-02-17T11:33:20.946Z,7.10
2019-02-17T11:38:26.481Z,8.53
2019-02-17T11:43:31.353Z,8.80
2019-02-17T11:48:36.484Z,8.73
2019-02-17T11:53:41.584Z,9.37
2019-02-17T11:58:46.503Z,9.10
2019-02-17T12:03:51.343Z,7.57
2019-02-17T12:08:56.223Z,7.43
2019-02-17T12:14:01.177Z,6.27
2019-02-17T12:19:06.362Z,6.93
2019-02-17T12:24:16.605Z,7.87
2019-02-17T12:29:26.340Z,7.60
2019-02-17T12:34:31.151Z,7.90
2019-02-17T12:39:36.238Z,8.13
2019-02-17T12:44:41.451Z,6.97
2019-02-17T12:49:46.991Z,7.03
2019-02-17T12:54:52.199Z,7.30
2019-02-17T12:59:57.459Z,7.60
2019-02-17T13:05:02.393Z,6.90
2019-02-17T13:10:08.470Z,7.60
2019-02-17T13:15:13.420Z,6.97
2019-02-17T13:20:18.550Z,6.90
2019-02-17T13:25:23.733Z,6.80
2019-02-17T13:30:29.067Z,6.97
2019-02-17T13:35:35.885Z,5.93
2019-02-17T13:40:41.165Z,6.63
2019-02-17T13:45:47.938Z,6.40
2019-02-17T13:50:52.974Z,5.57
2019-02-17T13:56:01.225Z,5.10
2019-02-17T14:01:07.115Z,5.33
2019-02-17T14:06:12.269Z,5.00
2019-02-17T14:11:17.441Z,5.00
2019-02-17T14:16:22.890Z,4.67
2019-02-17T14:21:28.721Z,4.33
2019-02-17T14:26:34.002Z,6.13
2019-02-17T14:31:39.254Z,4.40
2019-02-17T14:36:45.440Z,4.60
2019-02-17T14:41:50.341Z,4.43
2019-02-17T14:46:55.361Z,4.20
2019-02-17T14:52:00.508Z,3.80
2019-02-17T14:57:05.839Z,4.07
2019-02-17T15:02:11.141Z,4.00
2019-02-17T15:07:16.149Z,3.93
2019-02-17T15:12:21.246Z,2.83
2019-02-17T15:17:26.545Z,2.30
2019-02-17T15:22:31.769Z,2.73
2019-02-17T15:27:37.228Z,2.70
2019-02-17T15:32:42.540Z,2.30
2019-02-17T15:37:47.759Z,2.83
2019-02-17T15:42:53.129Z,3.67
2019-02-17T15:47:58.161Z,3.00
2019-02-17T15:53:03.527Z,3.57
2019-02-17T15:58:08.391Z,3.40
2019-02-17T16:03:13.898Z,3.23
2019-02-17T16:08:18.731Z,2.70
2019-02-17T16:13:23.604Z,2.87
2019-02-17T16:18:28.863Z,2.70
2019-02-17T16:23:33.815Z,2.53
2019-02-17T16:28:39.029Z,2.63
2019-02-17T16:33:44.629Z,2.57
2019-02-17T16:38:49.706Z,3.30
2019-02-17T16:43:54.859Z,2.80
2019-02-17T16:49:00.382Z,2.50
2019-02-17T16:54:05.643Z,2.43
2019-02-17T16:59:10.767Z,2.83
2019-02-17T17:04:15.806Z,2.77
2019-02-17T17:09:20.702Z,2.40
2019-02-17T17:14:25.894Z,2.57
2019-02-17T17:19:31.334Z,3.10
2019-02-17T17:24:39.134Z,3.07
2019-02-17T17:29:44.274Z,3.40
2019-02-17T17:34:58.370Z,3.40
2019-02-17T17:39:56.194Z,3.27
2019-02-17T17:45:01.466Z,3.27
2019-02-17T17:50:07.690Z,4.10
2019-02-17T17:55:12.974Z,4.63
2019-02-17T18:00:19.093Z,4.40
2019-02-17T18:05:25.078Z,3.97
2019-02-17T18:10:32.013Z,3.87
2019-02-17T18:15:37.008Z,4.43
2019-02-17T18:20:42.381Z,4.60
2019-02-17T18:25:47.444Z,3.90
2019-02-17T18:30:52.568Z,3.87
2019-02-17T18:35:58.551Z,3.93
2019-02-17T18:41:03.866Z,4.17
2019-02-17T18:46:08.926Z,4.23
2019-02-17T18:51:14.394Z,3.80
2019-02-17T18:56:19.517Z,4.20
2019-02-17T19:01:24.540Z,5.73
2019-02-17T19:06:29.866Z,5.93
2019-02-17T19:11:35.550Z,5.47
2019-02-17T19:16:40.700Z,5.03
2019-02-17T19:21:45.940Z,5.27
2019-02-17T19:26:51.130Z,6.23
2019-02-17T19:31:55.949Z,5.63
2019-02-17T19:37:00.830Z,4.90
2019-02-17T19:42:06.152Z,4.17
2019-02-17T19:47:11.421Z,4.30
2019-02-17T19:52:16.378Z,4.40
2019-02-17T19:57:21.828Z,4.80
2019-02-17T20:02:54.890Z,4.57
2019-02-17T20:08:00.743Z,3.80
2019-02-17T20:13:08.237Z,3.67
2019-02-17T20:18:13.105Z,3.90
2019-02-17T20:23:18.449Z,4.77
2019-02-17T20:28:35.678Z,4.43
2019-02-17T20:33:30.721Z,4.47
2019-02-17T20:38:35.704Z,4.37
2019-02-17T20:43:40.099Z,4.60
2019-02-17T20:48:45.238Z,4.63
2019-02-17T20:53:51.444Z,3.83
2019-02-17T20:58:56.559Z,4.27
2019-02-17T21:04:01.894Z,4.07
2019-02-17T21:09:07.584Z,4.43
2019-02-17T21:14:12.225Z,3.93
2019-02-17T21:19:17.014Z,4.53
2019-02-17T21:24:21.762Z,5.03
2019-02-17T21:29:26.913Z,4.47
2019-02-17T21:34:31.805Z,4.43
2019-02-17T21:39:36.853Z,3.97
2019-02-17T21:44:42.489Z,4.00
2019-02-17T21:49:47.344Z,3.87
2019-02-17T21:54:52.269Z,3.70
2019-02-17T21:59:57.811Z,3.77
2019-02-17T22:05:03.539Z,4.40
2019-02-17T22:10:09.553Z,4.33
2019-02-17T22:15:15.920Z,3.90
2019-02-17T22:20:21.207Z,4.57
2019-02-17T22:25:26.181Z,4.30
2019-02-17T22:30:31.332Z,4.30
2019-02-17T22:35:37.201Z,3.87
2019-02-17T22:40:42.034Z,3.93
2019-02-17T22:45:47.041Z,4.20
2019-02-17T22:50:52.077Z,3.67
2019-02-17T22:55:57.399Z,3.60
2019-02-17T23:01:04.805Z,4.23
2019-02-17T23:06:10.218Z,4.13
2019-02-17T23:11:15.419Z,3.83
2019-02-17T23:16:20.309Z,3.97
2019-02-17T23:21:25.784Z,3.70
2019-02-17T23:26:31.131Z,4.53
2019-02-17T23:31:36.182Z,3.73
2019-02-17T23:36:41.048Z,3.80
2019-02-17T23:41:46.151Z,3.57
2019-02-17T23:46:51.361Z,4.00
2019-02-17T23:51:56.657Z,3.80
2019-02-17T23:57:02.256Z,4.37
